Time;durP1;ratioP1;P1;durP2;ratioP2;P2;SDS_P1;SDS_P2;PMS_P1;PMS_P2;Temp;Humidity;BMP_temperature;BMP_pressure;BME280_temperature;BME280_humidity;BME280_pressure;Samples;Min_cycle;Max_cycle;Signal;HPM_P1;HPM_P2
2023/02/19 00:03:18;;;;;;;2.90;1.38;;;9.60;99.90;;;;;;8225260;28;20031;-82
2023/02/19 00:07:19;;;;;;;1.77;1.33;;;9.60;99.90;;;;;;8224657;28;20023;-83
2023/02/19 00:11:22;;;;;;;1.55;1.15;;;9.50;99.90;;;;;;8230014;28;20030;-82
2023/02/19 00:15:22;;;;;;;2.15;1.23;;;9.60;99.90;;;;;;8224570;28;20122;-82
2023/02/19 00:19:23;;;;;;;1.67;1.13;;;9.60;99.90;;;;;;8237607;28;20038;-83
2023/02/19 00:23:24;;;;;;;1.95;1.48;;;9.60;99.90;;;;;;8217877;28;20015;-82
2023/02/19 00:27:24;;;;;;;1.83;1.27;;;9.60;99.90;;;;;;8237483;28;20018;-82
2023/02/19 00:31:27;;;;;;;1.88;1.55;;;9.50;99.90;;;;;;8248645;28;20046;-82
2023/02/19 00:35:28;;;;;;;1.98;1.25;;;9.50;99.90;;;;;;8238337;28;20054;-83
2023/02/19 00:39:28;;;;;;;2.05;1.33;;;9.60;99.90;;;;;;8225410;28;20031;-82
2023/02/19 00:43:29;;;;;;;2.90;1.40;;;9.60;99.90;;;;;;8257403;28;20034;-83
2023/02/19 00:47:29;;;;;;;1.58;1.30;;;9.50;99.90;;;;;;8232241;28;20392;-82
2023/02/19 00:51:34;;;;;;;1.40;1.30;;;9.50;99.90;;;;;;8217861;28;20419;-83
2023/02/19 00:55:35;;;;;;;2.80;1.73;;;9.60;99.90;;;;;;8241661;28;20101;-83
2023/02/19 00:59:35;;;;;;;1.98;1.45;;;9.60;99.90;;;;;;8230621;28;20082;-83
2023/02/19 01:03:38;;;;;;;1.65;1.17;;;9.50;99.90;;;;;;8235835;28;20022;-83
2023/02/19 01:07:38;;;;;;;2.55;1.42;;;9.50;99.90;;;;;;8229950;28;20034;-83
2023/02/19 01:11:39;;;;;;;2.08;1.38;;;9.50;99.90;;;;;;8232966;28;20482;-82
2023/02/19 01:15:39;;;;;;;2.22;1.38;;;9.50;99.90;;;;;;8244174;28;20033;-82
2023/02/19 01:19:40;;;;;;;2.50;1.38;;;9.50;99.90;;;;;;8248278;28;20030;-82
2023/02/19 01:23:41;;;;;;;5.43;1.40;;;9.40;99.90;;;;;;8255044;28;20109;-82
2023/02/19 01:27:41;;;;;;;2.90;1.20;;;9.40;99.90;;;;;;8230593;28;20503;-83
2023/02/19 01:31:42;;;;;;;2.17;1.20;;;9.50;99.90;;;;;;8230035;28;20030;-82
2023/02/19 01:35:43;;;;;;;2.25;1.63;;;9.50;99.90;;;;;;8229291;28;20446;-83
2023/02/19 01:39:43;;;;;;;1.90;1.48;;;9.50;99.90;;;;;;8221122;28;20058;-82
2023/02/19 01:44:01;;;;;;;2.28;1.50;;;9.40;99.90;;;;;;8236539;28;20035;-82
2023/02/19 01:48:06;;;;;;;2.67;1.20;;;9.50;99.90;;;;;;8228764;28;20034;-82
2023/02/19 01:52:13;;;;;;;2.72;1.60;;;9.50;99.90;;;;;;8221618;28;20033;-82
2023/02/19 01:56:16;;;;;;;1.40;1.20;;;9.40;99.90;;;;;;8243955;28;20038;-82
2023/02/19 02:00:18;;;;;;;1.95;1.20;;;9.40;99.90;;;;;;8233504;28;20034;-83
2023/02/19 02:04:18;;;;;;;2.10;1.40;;;9.40;99.90;;;;;;8221318;28;20026;-83
2023/02/19 02:12:38;;;;;;;2.08;1.27;;;9.30;99.90;;;;;;8245260;28;20029;-81
2023/02/19 02:16:48;;;;;;;1.60;1.20;;;9.30;99.90;;;;;;8257424;28;20027;-81
2023/02/19 02:21:10;;;;;;;2.10;1.33;;;9.30;99.90;;;;;;8255461;28;20262;-81
2023/02/19 02:25:45;;;;;;;3.03;1.33;;;9.30;99.90;;;;;;8257015;28;20035;-82
2023/02/19 02:30:04;;;;;;;2.35;1.23;;;9.30;99.90;;;;;;8256890;28;20030;-81
2023/02/19 02:34:19;;;;;;;1.73;1.10;;;9.30;99.90;;;;;;8224588;28;20061;-80
2023/02/19 02:38:24;;;;;;;2.90;1.45;;;9.20;99.90;;;;;;8249144;28;20451;-81
2023/02/19 02:42:28;;;;;;;2.50;1.38;;;9.20;99.90;;;;;;8239393;28;20053;-81
2023/02/19 02:46:35;;;;;;;2.95;1.17;;;9.10;99.90;;;;;;8231379;28;20403;-81
2023/02/19 02:50:47;;;;;;;1.67;1.23;;;9.20;99.90;;;;;;8235378;28;20050;-81
2023/02/19 02:55:02;;;;;;;2.13;1.27;;;9.00;99.90;;;;;;8232611;28;20033;-81
2023/02/19 02:59:07;;;;;;;2.17;1.40;;;9.10;99.90;;;;;;8222261;28;20396;-80
2023/02/19 03:03:07;;;;;;;2.30;0.80;;;9.20;99.90;;;;;;8223195;28;20034;-81
2023/02/19 03:07:09;;;;;;;1.98;1.17;;;9.20;99.90;;;;;;8242615;28;20032;-81
2023/02/19 03:20:06;;;;;;;2.40;1.42;;;9.20;99.90;;;;;;8248003;28;20509;-81
2023/02/19 03:33:14;;;;;;;1.92;1.40;;;8.70;99.90;;;;;;8250264;28;20538;-80
2023/02/19 03:37:41;;;;;;;2.15;1.58;;;8.50;99.90;;;;;;8221430;28;20408;-81
2023/02/19 03:42:29;;;;;;;2.38;1.15;;;8.40;99.90;;;;;;8225155;28;20045;-81
2023/02/19 03:47:08;;;;;;;2.42;1.23;;;8.40;99.90;;;;;;8232511;28;20018;-80
2023/02/19 03:51:14;;;;;;;1.13;0.93;;;8.30;99.90;;;;;;8218560;28;20384;-80
2023/02/19 03:55:25;;;;;;;1.83;1.13;;;8.20;99.90;;;;;;8236267;28;20062;-80
2023/02/19 03:59:48;;;;;;;3.42;1.70;;;8.10;99.90;;;;;;8254528;28;20022;-80
2023/02/19 04:04:07;;;;;;;2.10;1.40;;;8.10;99.90;;;;;;8243465;28;20085;-80
2023/02/19 04:08:14;;;;;;;3.15;1.20;;;8.00;99.90;;;;;;8219086;28;20023;-80
2023/02/19 04:12:17;;;;;;;2.30;1.48;;;7.80;99.90;;;;;;8250211;28;20391;-79
2023/02/19 04:16:21;;;;;;;1.95;1.30;;;7.80;99.90;;;;;;8220322;28;20394;-79
2023/02/19 04:20:26;;;;;;;2.05;1.52;;;7.70;99.90;;;;;;8245186;28;20080;-81
2023/02/19 04:24:51;;;;;;;1.65;1.30;;;7.70;99.90;;;;;;8227354;28;20050;-81
2023/02/19 04:28:53;;;;;;;2.58;1.35;;;7.50;99.90;;;;;;8232312;28;20023;-80
2023/02/19 04:32:53;;;;;;;2.17;1.33;;;7.50;99.90;;;;;;8240615;28;20376;-81
2023/02/19 04:36:54;;;;;;;2.60;1.58;;;7.50;99.90;;;;;;8233068;28;20022;-81
2023/02/19 04:40:54;;;;;;;3.47;1.75;;;7.60;99.90;;;;;;8230442;28;20048;-81
2023/02/19 04:44:55;;;;;;;2.05;1.50;;;7.60;99.90;;;;;;8244749;28;20110;-81
2023/02/19 04:48:55;;;;;;;2.38;1.38;;;7.50;99.90;;;;;;8225784;28;20027;-81
2023/02/19 04:52:56;;;;;;;3.08;1.65;;;7.60;99.90;;;;;;8231571;28;20109;-81
2023/02/19 04:56:56;;;;;;;2.35;1.55;;;7.50;99.90;;;;;;8229292;28;20026;-79
2023/02/19 05:00:57;;;;;;;2.50;1.80;;;7.50;99.90;;;;;;8234487;28;20147;-78
2023/02/19 05:04:57;;;;;;;2.50;1.65;;;7.60;99.90;;;;;;8219402;28;20436;-79
2023/02/19 05:08:58;;;;;;;2.22;1.58;;;7.60;99.90;;;;;;8222665;28;20023;-79
2023/02/19 05:12:58;;;;;;;2.55;1.48;;;7.70;99.90;;;;;;8214702;28;20050;-80
2023/02/19 05:16:59;;;;;;;2.42;1.65;;;7.80;99.90;;;;;;8212203;28;20114;-80
2023/02/19 05:21:00;;;;;;;2.20;1.70;;;8.00;99.90;;;;;;8213834;28;20524;-80
2023/02/19 05:25:01;;;;;;;2.20;1.42;;;8.00;99.90;;;;;;8248358;28;20027;-80
2023/02/19 05:29:02;;;;;;;1.90;1.15;;;8.20;99.90;;;;;;8250284;28;20267;-80
2023/02/19 05:33:03;;;;;;;2.10;1.50;;;8.20;99.90;;;;;;8219056;28;20039;-80
2023/02/19 05:37:03;;;;;;;2.35;1.50;;;8.20;99.90;;;;;;8227416;28;20034;-81
2023/02/19 05:41:16;;;;;;;1.98;1.50;;;8.30;99.90;;;;;;8234451;28;20022;-80
2023/02/19 05:45:16;;;;;;;2.00;1.20;;;8.30;99.90;;;;;;8238705;28;20042;-80
2023/02/19 05:49:17;;;;;;;2.13;1.50;;;8.20;99.90;;;;;;8219967;28;20081;-80
2023/02/19 05:53:17;;;;;;;2.63;1.70;;;8.30;99.90;;;;;;8256993;28;20022;-80
2023/02/19 05:57:19;;;;;;;2.20;1.52;;;8.30;99.90;;;;;;8233940;28;20026;-80
2023/02/19 06:01:21;;;;;;;1.67;1.33;;;8.40;99.90;;;;;;8230093;28;20026;-80
2023/02/19 06:05:22;;;;;;;2.58;1.52;;;8.30;99.90;;;;;;8253082;28;20022;-80
2023/02/19 06:09:23;;;;;;;1.92;1.25;;;8.40;99.90;;;;;;8256033;28;20445;-80
2023/02/19 06:13:23;;;;;;;1.85;1.45;;;8.30;99.90;;;;;;8251548;28;20056;-81
2023/02/19 06:17:24;;;;;;;2.10;1.48;;;8.30;99.90;;;;;;8245882;28;20076;-80
2023/02/19 06:21:24;;;;;;;2.35;1.38;;;8.40;99.90;;;;;;8233565;28;20018;-81
2023/02/19 06:25:25;;;;;;;2.92;1.67;;;8.30;99.90;;;;;;8245403;28;20041;-80
2023/02/19 06:29:25;;;;;;;2.25;1.50;;;8.30;99.90;;;;;;8241404;28;20022;-80
2023/02/19 06:33:27;;;;;;;2.78;1.70;;;8.40;99.90;;;;;;8227571;28;20484;-80
2023/02/19 06:37:28;;;;;;;2.85;1.67;;;8.40;99.90;;;;;;8232342;28;20026;-80
2023/02/19 06:41:28;;;;;;;2.22;1.52;;;8.40;99.90;;;;;;8255870;28;20470;-79
2023/02/19 06:45:29;;;;;;;3.55;1.77;;;8.40;99.90;;;;;;8243885;28;20030;-80
2023/02/19 06:49:29;;;;;;;2.90;1.42;;;8.40;99.90;;;;;;8249479;28;20694;-80
2023/02/19 06:53:30;;;;;;;2.63;1.65;;;8.50;99.90;;;;;;8238961;28;20154;-79
2023/02/19 06:57:30;;;;;;;2.53;1.75;;;8.50;99.90;;;;;;8241064;28;20089;-79
2023/02/19 07:01:33;;;;;;;2.92;1.70;;;8.60;99.90;;;;;;8222319;28;20055;-80
2023/02/19 07:05:34;;;;;;;2.33;1.80;;;8.60;99.90;;;;;;8219938;28;20027;-80
2023/02/19 07:09:34;;;;;;;2.50;1.67;;;8.70;99.90;;;;;;8229363;28;20030;-80
2023/02/19 07:13:35;;;;;;;2.90;1.90;;;8.60;99.90;;;;;;8228296;28;20443;-79
2023/02/19 07:17:35;;;;;;;2.80;1.35;;;8.80;99.90;;;;;;8243144;28;20034;-80
2023/02/19 07:21:36;;;;;;;3.00;2.05;;;8.80;99.90;;;;;;8219023;28;20034;-80
2023/02/19 07:25:37;;;;;;;3.38;2.00;;;8.90;99.90;;;;;;8217438;28;20034;-79
2023/02/19 07:29:38;;;;;;;2.50;1.90;;;9.00;99.90;;;;;;8217949;28;20026;-79
2023/02/19 07:33:38;;;;;;;3.05;1.95;;;9.00;99.90;;;;;;8241115;28;20559;-79
2023/02/19 07:37:42;;;;;;;2.30;1.50;;;8.90;99.90;;;;;;8231678;28;20085;-80
2023/02/19 07:41:42;;;;;;;3.10;1.50;;;8.70;99.90;;;;;;8210025;28;20050;-78
2023/02/19 07:45:43;;;;;;;3.20;2.00;;;8.70;99.90;;;;;;8232763;28;20534;-79
2023/02/19 07:49:44;;;;;;;3.70;2.65;;;8.60;99.90;;;;;;8235262;28;20035;-80
2023/02/19 07:53:46;;;;;;;4.18;2.28;;;8.60;99.90;;;;;;8231848;28;20026;-79
2023/02/19 07:57:47;;;;;;;2.42;1.90;;;8.80;99.90;;;;;;8222070;28;20114;-79
2023/02/19 08:06:09;;;;;;;3.78;2.15;;;8.80;99.90;;;;;;8234477;28;20097;-79
2023/02/19 08:14:29;;;;;;;3.38;1.92;;;8.50;99.90;;;;;;8246121;28;20430;-79
2023/02/19 08:18:31;;;;;;;2.83;1.85;;;8.40;99.90;;;;;;8257207;28;20022;-79
2023/02/19 08:22:32;;;;;;;2.50;1.52;;;8.30;99.90;;;;;;8254527;28;20402;-80
2023/02/19 08:26:33;;;;;;;2.85;1.65;;;8.40;99.90;;;;;;8220647;28;20023;-79
2023/02/19 08:30:34;;;;;;;1.58;1.17;;;8.50;99.90;;;;;;8222998;28;20030;-77
2023/02/19 08:34:36;;;;;;;2.38;1.70;;;8.60;99.90;;;;;;8216141;28;20042;-79
2023/02/19 08:38:36;;;;;;;3.08;2.05;;;8.70;99.90;;;;;;8220464;28;20027;-78
2023/02/19 08:42:38;;;;;;;2.75;1.50;;;8.80;99.90;;;;;;8213258;28;20059;-79
2023/02/19 08:46:38;;;;;;;1.75;1.20;;;8.90;99.90;;;;;;8214119;28;20546;-79
2023/02/19 08:50:39;;;;;;;1.20;0.82;;;8.90;99.90;;;;;;8215140;28;20027;-79
2023/02/19 08:54:39;;;;;;;1.30;0.98;;;9.00;99.90;;;;;;8241299;28;20479;-77
2023/02/19 08:58:40;;;;;;;0.47;0.28;;;9.00;99.90;;;;;;8219545;28;20022;-79
2023/02/19 09:02:41;;;;;;;0.68;0.50;;;8.90;99.90;;;;;;8235090;28;20054;-79
2023/02/19 09:06:41;;;;;;;0.52;0.50;;;8.70;99.90;;;;;;8224937;28;20491;-78
2023/02/19 09:10:42;;;;;;;0.50;0.40;;;8.80;99.90;;;;;;8246344;28;20027;-80
2023/02/19 09:14:42;;;;;;;0.40;0.28;;;9.00;99.90;;;;;;8225332;28;20033;-80
2023/02/19 09:18:44;;;;;;;0.43;0.40;;;9.20;99.90;;;;;;8232782;28;20026;-80
2023/02/19 09:22:45;;;;;;;0.52;0.40;;;9.40;99.90;;;;;;8236213;28;20027;-80
2023/02/19 09:26:48;;;;;;;0.32;0.22;;;9.60;99.90;;;;;;8234853;28;20034;-80
2023/02/19 09:30:49;;;;;;;0.32;0.20;;;9.70;99.90;;;;;;8255258;28;20105;-79
2023/02/19 09:34:49;;;;;;;1.15;0.30;;;9.50;99.90;;;;;;8235951;28;20510;-79
2023/02/19 09:38:50;;;;;;;0.50;0.20;;;9.40;99.90;;;;;;8229417;28;20037;-80
2023/02/19 09:42:51;;;;;;;0.10;0.10;;;9.70;99.90;;;;;;8236107;28;20471;-80
2023/02/19 09:46:53;;;;;;;0.30;0.22;;;9.80;99.90;;;;;;8233463;28;20025;-80
2023/02/19 09:50:54;;;;;;;0.13;0.13;;;9.90;99.90;;;;;;8247551;28;20038;-81
2023/02/19 09:54:58;;;;;;;0.20;0.20;;;10.00;99.90;;;;;;8237671;28;20026;-81
2023/02/19 09:58:59;;;;;;;0.10;0.10;;;10.10;99.90;;;;;;8247281;28;20498;-81
2023/02/19 10:03:09;;;;;;;3.03;0.45;;;10.50;99.90;;;;;;8240756;28;20614;-80
2023/02/19 10:07:20;;;;;;;0.20;0.20;;;11.30;99.90;;;;;;8246069;28;20156;-81
2023/02/19 10:11:22;;;;;;;0.10;0.10;;;12.30;99.90;;;;;;8244781;28;20034;-81
2023/02/19 10:15:25;;;;;;;0.20;0.20;;;12.40;99.90;;;;;;8230245;28;20027;-81
2023/02/19 10:19:26;;;;;;;0.38;0.30;;;12.50;99.90;;;;;;8222545;28;20030;-81
2023/02/19 10:23:27;;;;;;;0.30;0.30;;;12.40;99.90;;;;;;8231302;28;20629;-80
2023/02/19 10:27:29;;;;;;;0.55;0.20;;;12.40;99.90;;;;;;8225512;28;20069;-81
2023/02/19 10:31:31;;;;;;;0.10;0.10;;;11.80;99.90;;;;;;8255491;28;20026;-81
2023/02/19 10:35:36;;;;;;;0.73;0.30;;;11.30;99.90;;;;;;8248945;28;20069;-81
2023/02/19 10:39:45;;;;;;;2.65;0.50;;;11.00;99.90;;;;;;8227558;28;20023;-81
2023/02/19 10:44:13;;;;;;;0.20;0.20;;;11.00;99.90;;;;;;8246145;28;20474;-80
2023/02/19 10:48:27;;;;;;;0.63;0.30;;;11.40;99.90;;;;;;8225288;28;20042;-81
2023/02/19 10:52:30;;;;;;;0.55;0.30;;;11.40;99.90;;;;;;8241571;28;20027;-81
2023/02/19 10:56:32;;;;;;;0.20;0.20;;;11.60;99.90;;;;;;8236134;28;20077;-81
2023/02/19 11:00:33;;;;;;;0.55;0.43;;;12.00;99.90;;;;;;8223499;28;20055;-80
2023/02/19 11:04:35;;;;;;;0.40;0.40;;;12.10;99.90;;;;;;8245656;28;20029;-80
2023/02/19 11:08:58;;;;;;;0.40;0.40;;;12.40;99.90;;;;;;8249297;28;20379;-79
2023/02/19 11:13:02;;;;;;;0.50;0.40;;;12.40;99.90;;;;;;8231821;28;20491;-78
2023/02/19 11:17:04;;;;;;;0.32;0.30;;;13.10;99.90;;;;;;8238412;28;20026;-80
2023/02/19 11:21:06;;;;;;;0.40;0.40;;;14.30;99.90;;;;;;8239576;28;20026;-80
2023/02/19 11:25:13;;;;;;;0.55;0.30;;;13.10;99.90;;;;;;8246839;28;20041;-80
2023/02/19 11:29:21;;;;;;;0.28;0.20;;;12.40;99.90;;;;;;8254392;28;20089;-80
2023/02/19 11:33:26;;;;;;;0.30;0.22;;;12.10;99.90;;;;;;8245893;28;20029;-80
2023/02/19 11:37:26;;;;;;;0.47;0.40;;;12.00;99.90;;;;;;8250777;28;20027;-79
2023/02/19 11:41:49;;;;;;;0.20;0.20;;;12.10;99.90;;;;;;8231565;28;20088;-79
2023/02/19 11:46:08;;;;;;;0.40;0.30;;;11.90;99.90;;;;;;8227020;28;20019;-80
2023/02/19 11:50:43;;;;;;;0.38;0.38;;;11.80;99.90;;;;;;8249937;28;20114;-79
2023/02/19 11:54:58;;;;;;;0.45;0.40;;;11.60;99.90;;;;;;8238065;28;20023;-78
2023/02/19 11:59:11;;;;;;;0.35;0.30;;;11.30;99.90;;;;;;8217151;28;20073;-80
2023/02/19 12:03:40;;;;;;;0.47;0.32;;;11.40;99.90;;;;;;8214106;28;20034;-79
2023/02/19 12:07:58;;;;;;;0.40;0.35;;;11.50;99.90;;;;;;8227009;28;20550;-79
2023/02/19 12:12:26;;;;;;;0.50;0.40;;;11.50;99.90;;;;;;8234079;28;20022;-80
2023/02/19 12:16:34;;;;;;;0.40;0.40;;;11.80;99.90;;;;;;8234137;28;20037;-79
2023/02/19 12:20:46;;;;;;;0.30;0.30;;;12.30;99.90;;;;;;8216658;28;20544;-80
2023/02/19 12:25:17;;;;;;;0.32;0.32;;;12.10;99.90;;;;;;8215507;28;20019;-80
2023/02/19 12:29:20;;;;;;;1.70;0.60;;;11.60;99.90;;;;;;8235124;28;20145;-80
2023/02/19 12:33:40;;;;;;;0.35;0.30;;;11.70;99.90;;;;;;8217838;28;20448;-80
2023/02/19 12:37:54;;;;;;;0.30;0.30;;;11.90;99.90;;;;;;8214746;28;20027;-80
2023/02/19 12:42:34;;;;;;;0.40;0.20;;;11.60;99.90;;;;;;8212881;28;20121;-79
2023/02/19 12:46:42;;;;;;;0.63;0.40;;;11.30;99.90;;;;;;8213899;28;20023;-80
2023/02/19 12:50:46;;;;;;;0.20;0.20;;;10.50;99.90;;;;;;8211558;28;20495;-77
2023/02/19 12:54:51;;;;;;;0.30;0.30;;;9.70;99.90;;;;;;8211892;28;20097;-78
2023/02/19 12:59:00;;;;;;;0.10;0.10;;;8.90;99.90;;;;;;8239417;28;20033;-79
2023/02/19 13:03:19;;;;;;;0.55;0.47;;;9.10;99.90;;;;;;8223299;28;20034;-80
2023/02/19 13:07:26;;;;;;;1.08;0.32;;;9.40;99.90;;;;;;8227530;28;20027;-80
2023/02/19 13:11:34;;;;;;;0.30;0.28;;;9.80;99.90;;;;;;8230007;28;20500;-79
2023/02/19 13:15:40;;;;;;;0.20;0.20;;;9.80;99.90;;;;;;8228288;28;20082;-79
2023/02/19 13:19:43;;;;;;;0.55;0.20;;;9.70;99.90;;;;;;8213243;28;20488;-81
2023/02/19 13:23:58;;;;;;;1.13;0.30;;;9.80;99.90;;;;;;8217920;28;20097;-78
2023/02/19 13:28:21;;;;;;;1.13;0.43;;;9.80;99.90;;;;;;8227056;28;20525;-79
2023/02/19 13:32:52;;;;;;;0.45;0.45;;;9.90;99.90;;;;;;8233831;28;20034;-79
2023/02/19 13:36:53;;;;;;;0.40;0.40;;;9.80;99.90;;;;;;8232821;28;20371;-79
2023/02/19 13:40:59;;;;;;;0.20;0.20;;;9.50;99.90;;;;;;8218438;28;20557;-79
2023/02/19 13:45:02;;;;;;;1.40;0.50;;;9.30;99.90;;;;;;8232695;28;20033;-79
2023/02/19 13:49:21;;;;;;;0.55;0.40;;;9.70;99.90;;;;;;8221506;28;20078;-78
2023/02/19 13:53:50;;;;;;;1.50;0.70;;;10.20;99.90;;;;;;8252662;28;20104;-79
2023/02/19 13:57:51;;;;;;;0.40;0.40;;;10.50;99.90;;;;;;8223384;28;20026;-79
2023/02/19 14:01:54;;;;;;;1.30;0.50;;;10.50;99.90;;;;;;8236162;28;20019;-79
2023/02/19 14:06:00;;;;;;;1.83;0.40;;;10.50;99.90;;;;;;8239128;28;20167;-80
2023/02/19 14:10:02;;;;;;;1.40;0.70;;;10.70;99.90;;;;;;8243994;28;20027;-79
2023/02/19 14:14:05;;;;;;;1.95;1.02;;;10.40;99.90;;;;;;8245199;28;20117;-78
2023/02/19 14:18:41;;;;;;;0.52;0.43;;;9.60;99.90;;;;;;8248444;28;20101;-79
2023/02/19 14:22:51;;;;;;;0.75;0.40;;;9.20;99.90;;;;;;8231221;28;20586;-80
2023/02/19 14:26:51;;;;;;;0.23;0.23;;;9.20;99.90;;;;;;8229500;28;20499;-78
2023/02/19 14:31:12;;;;;;;0.55;0.30;;;9.40;99.90;;;;;;8237914;28;20030;-79
2023/02/19 14:35:41;;;;;;;0.20;0.20;;;9.70;99.90;;;;;;8231386;28;20030;-79
2023/02/19 14:39:43;;;;;;;1.17;0.57;;;9.40;99.90;;;;;;8233266;28;20030;-79
2023/02/19 14:43:47;;;;;;;0.50;0.45;;;9.30;99.90;;;;;;8233788;28;20026;-79
2023/02/19 14:47:49;;;;;;;4.03;0.50;;;9.20;99.90;;;;;;8222084;28;20495;-79
2023/02/19 14:51:54;;;;;;;0.43;0.40;;;9.10;99.90;;;;;;8235926;28;20105;-80
2023/02/19 14:55:57;;;;;;;0.30;0.30;;;9.20;99.90;;;;;;8224033;28;20052;-79
2023/02/19 15:00:01;;;;;;;0.70;0.57;;;9.20;99.90;;;;;;8222184;28;20027;-79
2023/02/19 15:04:01;;;;;;;0.55;0.30;;;9.10;99.90;;;;;;8254913;28;20018;-80
2023/02/19 15:08:12;;;;;;;0.55;0.22;;;9.10;99.90;;;;;;8231308;28;20031;-78
2023/02/19 15:12:21;;;;;;;0.50;0.30;;;9.00;99.90;;;;;;8228346;28;20037;-80
2023/02/19 15:16:24;;;;;;;0.40;0.38;;;8.80;99.90;;;;;;8233432;28;20022;-79
2023/02/19 15:20:31;;;;;;;1.15;0.40;;;8.70;99.90;;;;;;8248473;28;20037;-78
2023/02/19 15:24:32;;;;;;;0.20;0.20;;;8.70;99.90;;;;;;8228233;28;20030;-79
2023/02/19 15:28:33;;;;;;;1.63;0.60;;;8.80;99.90;;;;;;8217593;28;20387;-79
2023/02/19 15:32:33;;;;;;;1.65;0.70;;;8.80;99.90;;;;;;8226149;28;20068;-80
2023/02/19 15:36:34;;;;;;;0.88;0.47;;;8.80;99.90;;;;;;8227381;28;20068;-79
2023/02/19 15:40:35;;;;;;;2.60;0.52;;;8.90;99.90;;;;;;8236416;28;20164;-79
2023/02/19 15:45:05;;;;;;;1.05;0.60;;;8.90;99.90;;;;;;8244714;28;20576;-78
2023/02/19 15:49:29;;;;;;;1.65;0.90;;;9.10;99.90;;;;;;8232569;28;20033;-78
2023/02/19 15:53:35;;;;;;;4.35;0.77;;;9.10;99.90;;;;;;8244752;28;20077;-78
2023/02/19 15:57:42;;;;;;;1.10;0.60;;;9.20;99.90;;;;;;8235187;28;20015;-80
2023/02/19 16:01:43;;;;;;;7.10;0.70;;;9.20;99.90;;;;;;8222593;28;20118;-81
2023/02/19 16:05:44;;;;;;;1.27;0.73;;;9.20;99.90;;;;;;8243869;28;20022;-80
2023/02/19 16:09:44;;;;;;;1.42;0.77;;;8.90;99.90;;;;;;8234724;28;20027;-79
2023/02/19 16:13:45;;;;;;;0.40;0.40;;;8.70;99.90;;;;;;8255975;28;20072;-78
2023/02/19 16:17:45;;;;;;;3.75;0.65;;;8.60;99.90;;;;;;8232400;28;20027;-79
2023/02/19 16:21:46;;;;;;;4.25;1.05;;;8.50;99.90;;;;;;8227664;28;20487;-80
2023/02/19 16:25:47;;;;;;;3.13;1.00;;;8.40;99.90;;;;;;8229044;28;20026;-79
2023/02/19 16:29:50;;;;;;;2.00;0.70;;;8.40;99.90;;;;;;8225792;28;20039;-79
2023/02/19 16:33:50;;;;;;;0.57;0.45;;;8.40;99.90;;;;;;8238816;28;20022;-80
2023/02/19 16:37:58;;;;;;;1.65;0.80;;;8.40;99.90;;;;;;8221298;28;20027;-79
2023/02/19 16:41:59;;;;;;;3.08;1.10;;;8.30;99.90;;;;;;8224474;28;20092;-78
2023/02/19 16:46:00;;;;;;;2.17;1.13;;;8.30;99.90;;;;;;8252801;28;20392;-79
2023/02/19 16:50:03;;;;;;;1.77;0.85;;;8.30;99.90;;;;;;8235259;28;20075;-79
2023/02/19 16:54:04;;;;;;;2.53;0.75;;;8.20;99.90;;;;;;8228371;28;20510;-80
2023/02/19 16:58:05;;;;;;;1.88;0.90;;;8.30;99.90;;;;;;8233698;28;20049;-80
2023/02/19 17:02:10;;;;;;;1.52;0.65;;;8.20;99.90;;;;;;8250513;28;20027;-79
2023/02/19 17:06:11;;;;;;;1.63;0.88;;;8.20;99.90;;;;;;8233672;28;20023;-79
2023/02/19 17:10:26;;;;;;;2.10;1.00;;;8.10;99.90;;;;;;8232897;28;20492;-80
2023/02/19 17:14:26;;;;;;;2.00;1.10;;;8.20;99.90;;;;;;8243847;28;20030;-80
2023/02/19 17:18:27;;;;;;;3.22;1.00;;;8.10;99.90;;;;;;8223281;28;20031;-80
2023/02/19 17:22:28;;;;;;;6.47;1.90;;;8.10;99.90;;;;;;8256469;28;20030;-80
2023/02/19 17:26:30;;;;;;;7.13;1.85;;;7.90;99.90;;;;;;8257557;28;20027;-80
2023/02/19 17:30:32;;;;;;;6.68;1.85;;;7.80;99.90;;;;;;8231585;28;20033;-80
2023/02/19 17:34:32;;;;;;;5.18;1.98;;;7.60;99.90;;;;;;8243391;28;20566;-80
2023/02/19 17:38:33;;;;;;;5.20;1.40;;;7.50;99.90;;;;;;8233735;28;20034;-80
2023/02/19 17:42:34;;;;;;;6.22;2.20;;;7.40;99.90;;;;;;8250038;28;20037;-80
2023/02/19 17:46:35;;;;;;;3.33;1.50;;;7.60;99.90;;;;;;8247817;28;20054;-80
2023/02/19 17:50:35;;;;;;;1.88;1.20;;;7.50;99.90;;;;;;8244753;28;20026;-80
2023/02/19 17:54:36;;;;;;;3.08;1.05;;;7.40;99.90;;;;;;8256941;28;20403;-80
2023/02/19 17:58:36;;;;;;;2.92;1.10;;;7.20;99.90;;;;;;8247937;28;20081;-80
2023/02/19 18:02:37;;;;;;;1.60;0.95;;;7.40;99.90;;;;;;8234642;28;20446;-80
2023/02/19 18:06:37;;;;;;;1.70;1.00;;;7.50;99.90;;;;;;8236356;28;20030;-80
2023/02/19 18:10:38;;;;;;;1.80;1.10;;;7.40;99.90;;;;;;8258036;28;20027;-80
2023/02/19 18:14:38;;;;;;;3.00;1.25;;;7.30;99.90;;;;;;8231518;28;20035;-80
2023/02/19 18:18:39;;;;;;;1.90;0.93;;;7.40;99.90;;;;;;8249089;28;20498;-79
2023/02/19 18:22:41;;;;;;;2.72;1.35;;;7.60;99.90;;;;;;8243158;28;20039;-80
2023/02/19 18:26:42;;;;;;;1.95;0.82;;;7.60;99.90;;;;;;8238785;28;20042;-80
2023/02/19 18:30:42;;;;;;;3.05;1.20;;;7.60;99.90;;;;;;8238657;28;20512;-79
2023/02/19 18:34:48;;;;;;;3.92;1.20;;;7.90;99.90;;;;;;8230155;28;20030;-79
2023/02/19 18:38:48;;;;;;;2.17;1.20;;;8.00;99.90;;;;;;8230073;28;20080;-79
2023/02/19 18:42:49;;;;;;;1.63;1.23;;;7.90;99.90;;;;;;8219252;28;20018;-79
2023/02/19 18:46:50;;;;;;;1.70;0.93;;;7.90;99.90;;;;;;8231490;28;20019;-80
2023/02/19 18:50:50;;;;;;;3.25;1.23;;;7.70;99.90;;;;;;8236271;28;20053;-80
2023/02/19 18:54:52;;;;;;;3.67;1.42;;;7.80;99.90;;;;;;8230052;28;20088;-80
2023/02/19 18:58:53;;;;;;;2.10;0.98;;;7.80;99.90;;;;;;8227177;28;20114;-80
2023/02/19 19:02:58;;;;;;;3.33;1.83;;;7.80;99.90;;;;;;8231398;28;20392;-80
2023/02/19 19:06:58;;;;;;;2.20;1.20;;;7.80;99.90;;;;;;8232193;28;20026;-80
2023/02/19 19:10:59;;;;;;;2.72;1.33;;;7.60;99.90;;;;;;8239114;28;20072;-79
2023/02/19 19:14:59;;;;;;;2.38;1.10;;;7.50;99.90;;;;;;8235524;28;20026;-80
2023/02/19 19:19:00;;;;;;;4.47;1.17;;;7.50;99.90;;;;;;8232185;28;20050;-80
2023/02/19 19:23:01;;;;;;;4.40;1.17;;;7.40;99.90;;;;;;8229844;28;20035;-80
2023/02/19 19:27:02;;;;;;;5.18;1.13;;;7.50;99.90;;;;;;8246116;28;20546;-80
2023/02/19 19:31:03;;;;;;;2.47;0.95;;;7.50;99.90;;;;;;8235065;28;20030;-79
2023/02/19 19:35:04;;;;;;;2.85;1.00;;;7.50;99.90;;;;;;8231346;28;20030;-79
2023/02/19 19:39:05;;;;;;;2.70;1.00;;;7.40;99.90;;;;;;8236440;28;20030;-81
2023/02/19 19:43:05;;;;;;;1.30;0.90;;;7.30;99.90;;;;;;8254591;28;20038;-80
2023/02/19 19:47:06;;;;;;;1.92;1.30;;;7.30;99.90;;;;;;8223028;28;20442;-79
2023/02/19 19:51:06;;;;;;;2.10;0.70;;;7.50;99.90;;;;;;8252791;28;20030;-80
2023/02/19 19:55:08;;;;;;;2.50;1.15;;;7.20;99.90;;;;;;8212207;28;20499;-80
2023/02/19 19:59:10;;;;;;;4.13;1.02;;;7.10;99.90;;;;;;8235440;28;20030;-78
2023/02/19 20:03:12;;;;;;;2.80;0.90;;;7.10;99.90;;;;;;8218778;28;20084;-80
2023/02/19 20:07:13;;;;;;;1.10;0.90;;;7.40;99.90;;;;;;8231526;28;20027;-79
2023/02/19 20:11:13;;;;;;;2.15;0.80;;;7.40;99.90;;;;;;8228755;28;20035;-79
2023/02/19 20:15:20;;;;;;;3.42;1.10;;;7.20;99.90;;;;;;8235291;28;20109;-80
2023/02/19 20:19:21;;;;;;;1.10;0.77;;;7.00;99.90;;;;;;8221756;28;20117;-79
2023/02/19 20:23:21;;;;;;;4.00;0.80;;;6.90;99.90;;;;;;8222496;28;20407;-79
2023/02/19 20:27:22;;;;;;;2.45;1.05;;;6.90;99.90;;;;;;8230621;28;20412;-79
2023/02/19 20:31:23;;;;;;;1.88;1.08;;;6.90;99.90;;;;;;8226835;28;20056;-79
2023/02/19 20:35:27;;;;;;;3.40;1.25;;;7.00;99.90;;;;;;8219943;28;20026;-79
2023/02/19 20:39:28;;;;;;;2.88;1.17;;;7.00;99.90;;;;;;8231423;28;20062;-80
2023/02/19 20:43:29;;;;;;;1.65;1.05;;;7.00;99.90;;;;;;8221142;28;20399;-79
2023/02/19 20:47:29;;;;;;;1.50;1.00;;;7.10;99.90;;;;;;8222673;28;20053;-80
2023/02/19 20:51:30;;;;;;;6.30;1.20;;;7.00;99.90;;;;;;8228557;28;20031;-79
2023/02/19 20:55:30;;;;;;;2.65;1.20;;;6.90;99.90;;;;;;8225579;28;20415;-80
2023/02/19 20:59:34;;;;;;;5.65;1.20;;;7.30;99.90;;;;;;8235771;28;20018;-80
2023/02/19 21:03:34;;;;;;;1.85;1.02;;;7.20;99.90;;;;;;8232390;28;20502;-80
2023/02/19 21:07:35;;;;;;;2.83;1.23;;;7.20;99.90;;;;;;8238045;28;20110;-80
2023/02/19 21:11:35;;;;;;;2.05;1.00;;;7.60;99.90;;;;;;8243536;28;20483;-80
2023/02/19 21:15:36;;;;;;;2.75;1.08;;;7.50;99.90;;;;;;8227568;28;20030;-80
2023/02/19 21:19:37;;;;;;;2.15;0.90;;;7.10;99.90;;;;;;8236320;28;20103;-80
2023/02/19 21:23:37;;;;;;;3.08;1.15;;;6.80;99.90;;;;;;8242290;28;20709;-80
2023/02/19 21:27:38;;;;;;;4.47;1.33;;;6.60;99.90;;;;;;8235373;28;20108;-80
2023/02/19 21:31:41;;;;;;;2.45;1.00;;;6.70;99.90;;;;;;8231796;28;20502;-80
2023/02/19 21:35:42;;;;;;;2.17;1.10;;;6.90;99.90;;;;;;8234099;28;20432;-79
2023/02/19 21:39:42;;;;;;;4.05;1.20;;;7.00;99.90;;;;;;8244494;28;20023;-79
2023/02/19 21:43:43;;;;;;;2.75;1.10;;;7.00;99.90;;;;;;8242873;28;20333;-80
2023/02/19 21:47:43;;;;;;;2.20;1.10;;;6.90;99.90;;;;;;8230386;28;20027;-80
2023/02/19 21:51:46;;;;;;;1.15;0.80;;;6.90;99.90;;;;;;8221690;28;20031;-80
2023/02/19 21:55:51;;;;;;;3.53;1.10;;;6.70;99.90;;;;;;8244092;28;20019;-79
2023/02/19 21:59:51;;;;;;;1.90;0.90;;;6.70;99.90;;;;;;8236989;28;20429;-79